Terminal Aerodrome Forecast
Issued by NWS Portland, OR

Home | Current Version | Previous Version | Text Only | Print | Product List | Glossary On
Versions: 1 2 3 4 5 6 7 8 9 10 11 12 13 14
000
FTUS46 KPQR 200558
TAFSLE
TAF
KSLE 200558Z 2006/2106 19011KT P6SM -RA SCT015 BKN025 OVC040
     FM201100 18009KT P6SM -SHRA SCT020 OVC040
     FM201400 17010KT P6SM VCSH SCT015 OVC030
     FM201800 18012KT 6SM -RA OVC025
     FM202200 18014KT P6SM OVC050=

USA.gov is the U.S. government's official web portal to all federal, state and local government web resources and services.